Sarasota, FL (34237)

1:49 PM EDT on August 25, 2016 (GMT -0400)
Oak Shores | | Change Station

Elev 26 ft 27.33 °N, 82.50 °W | Updated 458 days ago

Thunderstorm
Thunderstorm
90 °F
Feels Like 98 °F
N
12
Wind Variable Wind from ENE
Gusts mph

Today
High -- | Low -- °F
--% Chance of Precip.
Yesterday
High -- | Low -- °F
Precip. -- in
Pressure 30.00 in
Visibility 10.0 miles
Clouds Few 3700 ft
Few 4600 ft
Heat Index 98 °F
Dew Point 74 °F
Humidity 60%
Rainfall in
Snow Depth Not available.
7:06 AM 7:57 PM
Last Quarter, 43% visible
METAR KSRQ 251653Z 07011KT 10SM FEW037 FEW046 34/23 A3000 RMK AO2 SLP159 T03390228 $
Pressure 30.00 in
Visibility 10.0 miles
Clouds Few 3700 ft
Few 4600 ft
Heat Index 98 °F
Dew Point 74 °F
Humidity 60%
Rainfall in
Snow Depth Not available.
7:06 AM 7:57 PM
Last Quarter, 43% visible
METAR KSRQ 251653Z 07011KT 10SM FEW037 FEW046 34/23 A3000 RMK AO2 SLP159 T03390228 $
A tropical disturbance pushing toward the Bahamas, is expected to develop into a tropical depression or storm, and will likely target Florida and the Gulf Coast this weekend into next week.

Right now, the disturbance remains a broad area of low pressure pushing through the Dominican Republic and Haiti, headed toward the southeast Bahamas. Rainfall totals over 3 inches (with locally higher amounts) are expected in HispaƱiola, particularly over elevated terrain.

10-Day Weather Forecast

Almanac

Astronomy

Aug. 25, 2016 Rise Set
Actual Time
Civil Twilight
Nautical Twilight
Astronomical Twilight
Moon
Length of Visible Light
Length of Day
Tomorrow will be .
, % of the Moon is Illuminated

Today's Extremes

State Highs State Lows

Community

WunderPhotos

Upload Photos

1,934,886 photos uploaded!

WunderBlog® & News

Nearby

Air Quality

  Air Quality AQ Index Pollutant
Not available.

Snow Depth

Station Depth Elevation

Earthquake Activity

City Distance Mag. Time & Date
Minimum magnitude displayed is 2.5.

Coastal Water Temperatures

Place Temperature

Stations

Nearby Weather Stations

Station Location Temp. Windchill Dew Point Humidity Wind Precip. Elev Updated Type
                   

Watches & Warnings

There are currently no watches in effect.